createdAt,value
2018-06-29T00:01:51.775Z,44.20
2018-06-29T00:04:19.871Z,45.77
2018-06-29T00:06:47.991Z,49.53
2018-06-29T00:09:16.097Z,43.70
2018-06-29T00:11:44.228Z,42.80
2018-06-29T00:14:12.323Z,48.37
2018-06-29T00:16:40.436Z,47.57
2018-06-29T00:19:08.569Z,50.57
2018-06-29T00:21:36.691Z,37.43
2018-06-29T00:24:04.856Z,42.30
2018-06-29T00:26:32.952Z,42.20
2018-06-29T00:29:01.036Z,42.00
2018-06-29T00:31:29.132Z,41.27
2018-06-29T00:33:57.212Z,36.87
2018-06-29T00:36:25.300Z,44.47
2018-06-29T00:38:53.381Z,44.27
2018-06-29T00:41:21.479Z,42.70
2018-06-29T00:43:49.576Z,42.63
2018-06-29T00:46:17.690Z,43.40
2018-06-29T00:48:45.788Z,39.93
2018-06-29T00:51:14.052Z,46.97
2018-06-29T00:53:42.240Z,44.00
2018-06-29T00:56:10.336Z,47.30
2018-06-29T00:58:38.459Z,48.97
2018-06-29T01:01:06.566Z,46.10
2018-06-29T01:03:34.667Z,51.00
2018-06-29T01:06:02.768Z,42.13
2018-06-29T01:08:30.876Z,42.23
2018-06-29T01:10:58.955Z,47.50
2018-06-29T01:13:27.064Z,46.53
2018-06-29T01:15:55.151Z,45.67
2018-06-29T01:18:23.280Z,47.50
2018-06-29T01:20:51.396Z,53.93
2018-06-29T01:23:19.509Z,53.73
2018-06-29T01:25:47.601Z,59.00
2018-06-29T01:28:15.734Z,61.40
2018-06-29T01:30:43.816Z,83.50
2018-06-29T01:33:11.936Z,68.23
2018-06-29T01:35:40.053Z,68.37
2018-06-29T01:38:08.156Z,77.93
2018-06-29T01:40:36.244Z,72.57
2018-06-29T01:43:04.344Z,84.90
2018-06-29T01:45:32.436Z,66.60
2018-06-29T01:48:00.528Z,67.80
2018-06-29T01:50:28.625Z,68.20
2018-06-29T01:52:56.728Z,65.33
2018-06-29T01:55:24.818Z,61.73
2018-06-29T01:57:52.936Z,63.97
2018-06-29T02:00:21.020Z,61.60
2018-06-29T02:02:49.125Z,80.40
2018-06-29T02:05:17.200Z,82.03
2018-06-29T02:07:45.308Z,70.07
2018-06-29T02:10:13.388Z,60.80
2018-06-29T02:12:41.512Z,56.67
2018-06-29T02:15:09.591Z,69.60
2018-06-29T02:17:37.697Z,85.47
2018-06-29T02:20:05.820Z,75.70
2018-06-29T02:22:33.928Z,84.23
2018-06-29T02:25:02.013Z,83.57
2018-06-29T02:27:30.127Z,72.87
2018-06-29T02:29:58.211Z,78.57
2018-06-29T02:32:26.289Z,80.43
2018-06-29T02:34:54.406Z,77.50
2018-06-29T02:37:22.501Z,74.20
2018-06-29T02:39:50.611Z,81.47
2018-06-29T02:42:18.712Z,78.20
2018-06-29T02:44:46.825Z,78.10
2018-06-29T02:47:14.926Z,69.30
2018-06-29T02:49:43.053Z,67.33
2018-06-29T02:52:11.139Z,74.70
2018-06-29T02:54:39.372Z,80.93
2018-06-29T02:57:07.478Z,72.90
2018-06-29T02:59:36.024Z,101.27
2018-06-29T03:02:04.160Z,78.17
2018-06-29T03:04:32.252Z,73.53
2018-06-29T03:07:00.328Z,97.87
2018-06-29T03:09:28.430Z,90.93
2018-06-29T03:11:56.513Z,90.43
2018-06-29T03:14:24.624Z,73.77
2018-06-29T03:16:52.700Z,77.50
2018-06-29T03:19:20.795Z,69.53
2018-06-29T03:21:48.892Z,69.67
2018-06-29T03:24:16.985Z,65.40
2018-06-29T03:26:45.062Z,60.80
2018-06-29T03:29:13.161Z,70.60
2018-06-29T03:31:41.269Z,75.07
2018-06-29T03:34:09.398Z,65.00
2018-06-29T03:36:37.692Z,67.50
2018-06-29T03:39:07.980Z,76.03
2018-06-29T03:41:36.131Z,69.13
2018-06-29T03:44:04.244Z,72.77
2018-06-29T03:46:32.343Z,69.67
2018-06-29T03:49:00.441Z,69.30
2018-06-29T03:51:28.988Z,72.60
2018-06-29T03:53:57.085Z,72.17
2018-06-29T03:56:25.173Z,78.80
2018-06-29T03:58:53.516Z,66.70
2018-06-29T04:01:21.584Z,80.97
2018-06-29T04:03:49.685Z,68.30
2018-06-29T04:06:17.771Z,72.60
2018-06-29T04:08:45.880Z,74.23
2018-06-29T04:11:14.064Z,69.87
2018-06-29T04:13:42.312Z,69.77
2018-06-29T04:16:10.388Z,75.37
2018-06-29T04:18:38.468Z,63.33
2018-06-29T04:21:06.577Z,66.30
2018-06-29T04:23:34.694Z,74.57
2018-06-29T04:26:02.816Z,72.57
2018-06-29T04:28:30.916Z,62.10
2018-06-29T04:30:59.016Z,57.97
2018-06-29T04:33:27.112Z,64.17
2018-06-29T04:35:55.304Z,59.57
2018-06-29T04:38:23.388Z,61.20
2018-06-29T04:40:51.503Z,70.90
2018-06-29T04:43:19.584Z,55.00
2018-06-29T04:45:47.682Z,51.53
2018-06-29T04:48:15.774Z,57.77
2018-06-29T04:50:43.871Z,62.60
2018-06-29T04:53:11.961Z,53.70
2018-06-29T04:55:40.092Z,65.10
2018-06-29T04:58:08.211Z,60.90
2018-06-29T05:00:36.316Z,57.67
2018-06-29T05:03:04.553Z,53.23
2018-06-29T05:05:32.668Z,65.83
2018-06-29T05:08:00.765Z,56.90
2018-06-29T05:10:28.885Z,48.30
2018-06-29T05:12:56.968Z,54.23
2018-06-29T05:15:25.109Z,53.70
2018-06-29T05:17:53.177Z,49.27
2018-06-29T05:20:21.308Z,45.97
2018-06-29T05:22:49.400Z,46.43
2018-06-29T05:25:17.503Z,52.43
2018-06-29T05:27:45.593Z,50.37
2018-06-29T05:30:13.705Z,51.97
2018-06-29T05:32:41.793Z,52.70
2018-06-29T05:35:09.945Z,51.00
2018-06-29T05:37:38.030Z,56.63
2018-06-29T05:40:06.172Z,57.40
2018-06-29T05:42:34.282Z,54.63
2018-06-29T05:45:02.401Z,57.27
2018-06-29T05:47:30.492Z,59.73
2018-06-29T05:49:58.616Z,49.43
2018-06-29T05:52:26.734Z,50.13
2018-06-29T05:54:54.844Z,51.33
2018-06-29T05:57:23.006Z,50.20
2018-06-29T05:59:51.292Z,42.47
2018-06-29T06:02:19.445Z,48.63
2018-06-29T06:04:47.563Z,55.23
2018-06-29T06:07:15.656Z,58.70
2018-06-29T06:09:43.747Z,56.57
2018-06-29T06:12:11.847Z,48.53
2018-06-29T06:14:39.943Z,51.43
2018-06-29T06:17:08.049Z,48.37
2018-06-29T06:19:41.860Z,44.23
2018-06-29T06:22:09.960Z,48.70
2018-06-29T06:24:38.056Z,55.73
2018-06-29T06:27:06.381Z,44.10
2018-06-29T06:29:34.472Z,44.67
2018-06-29T06:32:02.589Z,51.90
2018-06-29T06:34:30.699Z,48.60
2018-06-29T06:36:58.825Z,44.00
2018-06-29T06:39:26.916Z,43.20
2018-06-29T06:41:55.033Z,44.20
2018-06-29T06:44:23.121Z,40.07
2018-06-29T06:46:51.256Z,44.80
2018-06-29T06:49:19.364Z,46.17
2018-06-29T06:51:47.464Z,45.63
2018-06-29T06:54:15.582Z,49.47
2018-06-29T06:56:43.689Z,47.27
2018-06-29T06:59:11.808Z,47.90
2018-06-29T07:01:39.908Z,50.60
2018-06-29T07:04:08.000Z,47.20
2018-06-29T07:06:36.140Z,47.77
2018-06-29T07:09:06.544Z,48.10
2018-06-29T07:11:34.652Z,48.97
2018-06-29T07:14:02.892Z,59.10
2018-06-29T07:16:30.992Z,57.90
2018-06-29T07:18:59.094Z,52.63
2018-06-29T07:21:27.209Z,55.20
2018-06-29T07:23:55.304Z,66.47
2018-06-29T07:26:23.460Z,60.63
2018-06-29T07:28:51.574Z,63.50
2018-06-29T07:31:19.692Z,62.40
2018-06-29T07:33:47.784Z,66.60
2018-06-29T07:36:16.597Z,63.40
2018-06-29T07:38:44.796Z,64.63
2018-06-29T07:41:12.935Z,62.40
2018-06-29T07:43:41.037Z,56.23
2018-06-29T07:46:09.691Z,59.20
2018-06-29T07:48:37.792Z,54.20
2018-06-29T07:51:06.073Z,58.37
2018-06-29T07:53:34.180Z,65.47
2018-06-29T07:56:02.316Z,56.73
2018-06-29T07:58:30.535Z,57.63
2018-06-29T08:01:02.104Z,58.27
2018-06-29T08:03:30.796Z,72.53
2018-06-29T08:05:58.900Z,72.90
2018-06-29T08:08:27.763Z,61.87
2018-06-29T08:10:55.853Z,73.53
2018-06-29T08:13:24.425Z,72.17
2018-06-29T08:15:53.289Z,76.17
2018-06-29T08:18:21.584Z,73.97
2018-06-29T08:20:49.672Z,69.10
2018-06-29T08:23:17.795Z,81.63
2018-06-29T08:25:45.905Z,70.83
2018-06-29T08:28:14.008Z,74.90
2018-06-29T08:30:42.220Z,75.07
2018-06-29T08:33:10.346Z,82.90
2018-06-29T08:35:38.441Z,82.43
2018-06-29T08:38:06.555Z,82.67
2018-06-29T08:40:34.667Z,86.47
2018-06-29T08:43:02.772Z,91.30
2018-06-29T08:45:30.885Z,92.40
2018-06-29T08:47:59.268Z,74.30
2018-06-29T08:50:27.378Z,82.70
2018-06-29T08:52:55.486Z,78.53
2018-06-29T08:55:23.817Z,86.47
2018-06-29T08:57:51.940Z,78.87
2018-06-29T09:00:20.036Z,80.97
2018-06-29T09:02:48.133Z,78.93
2018-06-29T09:05:16.242Z,77.40
2018-06-29T09:07:44.357Z,80.10
2018-06-29T09:10:12.445Z,76.33
2018-06-29T09:12:40.552Z,74.87
2018-06-29T09:15:08.632Z,76.37
2018-06-29T09:17:36.728Z,71.63
2018-06-29T09:20:04.820Z,72.63
2018-06-29T09:22:32.937Z,70.43
2018-06-29T09:25:01.025Z,70.67
2018-06-29T09:27:29.121Z,74.00
2018-06-29T09:29:57.236Z,75.90
2018-06-29T09:32:25.321Z,72.70
2018-06-29T09:34:53.414Z,68.57
2018-06-29T09:37:21.575Z,79.10
2018-06-29T09:39:49.673Z,74.13
2018-06-29T09:42:17.776Z,70.40
2018-06-29T09:44:45.885Z,65.33
2018-06-29T09:47:13.960Z,64.93
2018-06-29T09:49:42.079Z,63.63
2018-06-29T09:52:10.320Z,59.73
2018-06-29T09:54:38.426Z,66.90
2018-06-29T09:57:06.516Z,58.07
2018-06-29T09:59:34.628Z,52.73
2018-06-29T10:02:02.710Z,55.73
2018-06-29T10:04:30.812Z,58.03
2018-06-29T10:06:58.906Z,52.23
2018-06-29T10:09:26.998Z,59.73
2018-06-29T10:11:55.076Z,57.77
2018-06-29T10:14:23.216Z,56.47
2018-06-29T10:16:51.327Z,55.87
2018-06-29T10:19:19.432Z,59.47
2018-06-29T10:21:47.508Z,59.57
2018-06-29T10:24:15.624Z,61.93
2018-06-29T10:26:43.721Z,57.33
2018-06-29T10:29:11.816Z,64.00
2018-06-29T10:31:39.893Z,64.33
2018-06-29T10:34:07.991Z,58.57
2018-06-29T10:36:36.076Z,63.03
2018-06-29T10:39:06.732Z,62.17
2018-06-29T10:41:34.876Z,60.03
2018-06-29T10:44:02.946Z,63.60
2018-06-29T10:46:31.024Z,64.77
2018-06-29T10:48:59.111Z,57.23
2018-06-29T10:51:27.195Z,73.70
2018-06-29T10:53:55.298Z,60.50
2018-06-29T10:56:23.376Z,57.07
2018-06-29T10:58:51.604Z,60.33
2018-06-29T11:01:19.680Z,59.60
2018-06-29T11:03:47.776Z,60.37
2018-06-29T11:06:15.968Z,66.87
2018-06-29T11:08:44.063Z,67.17
2018-06-29T11:11:12.144Z,61.77
2018-06-29T11:13:40.405Z,64.43
2018-06-29T11:16:08.495Z,64.93
2018-06-29T11:18:36.600Z,68.63
2018-06-29T11:21:04.681Z,70.10
2018-06-29T11:23:32.988Z,63.33
2018-06-29T11:26:01.122Z,61.70
2018-06-29T11:28:29.211Z,62.23
2018-06-29T11:30:57.318Z,58.87
2018-06-29T11:33:25.397Z,58.33
2018-06-29T11:35:53.496Z,57.57
2018-06-29T11:38:21.582Z,50.70
2018-06-29T11:40:49.686Z,54.70
2018-06-29T11:43:17.768Z,53.33
2018-06-29T11:45:46.111Z,52.70
2018-06-29T11:48:14.192Z,52.03
2018-06-29T11:50:42.305Z,49.33
2018-06-29T11:53:10.384Z,50.80
2018-06-29T11:55:38.496Z,47.20
2018-06-29T11:58:06.607Z,51.13
2018-06-29T12:00:34.832Z,48.23
2018-06-29T12:03:02.897Z,46.53
2018-06-29T12:05:31.012Z,51.33
2018-06-29T12:07:59.104Z,47.33
2018-06-29T12:10:27.219Z,50.57
2018-06-29T12:12:55.316Z,57.17
2018-06-29T12:15:23.420Z,52.20
2018-06-29T12:17:51.520Z,49.13
2018-06-29T12:20:20.002Z,50.03
2018-06-29T12:22:48.101Z,52.43
2018-06-29T12:25:16.208Z,49.17
2018-06-29T12:27:44.301Z,54.20
2018-06-29T12:30:12.419Z,51.07
2018-06-29T12:32:40.548Z,47.40
2018-06-29T12:35:08.659Z,47.03
2018-06-29T12:37:36.776Z,51.90
2018-06-29T12:40:04.887Z,42.13
2018-06-29T12:42:33.005Z,49.47
2018-06-29T12:45:01.117Z,46.20
2018-06-29T12:47:29.203Z,44.10
2018-06-29T12:49:57.336Z,49.83
2018-06-29T12:52:25.448Z,46.53
2018-06-29T12:54:53.549Z,46.00
2018-06-29T12:57:21.683Z,46.53
2018-06-29T12:59:49.827Z,45.37
2018-06-29T13:02:17.924Z,46.57
2018-06-29T13:04:46.056Z,41.67
2018-06-29T13:07:14.177Z,45.77
2018-06-29T13:09:42.264Z,46.40
2018-06-29T13:12:10.364Z,42.37
2018-06-29T13:14:38.489Z,45.50
2018-06-29T13:17:06.601Z,49.53
2018-06-29T13:19:34.716Z,40.03
2018-06-29T13:22:02.855Z,42.53
2018-06-29T13:24:30.946Z,41.03
2018-06-29T13:26:59.056Z,41.17
2018-06-29T13:29:27.192Z,42.23
2018-06-29T13:31:55.296Z,43.37
2018-06-29T13:34:23.400Z,34.90
2018-06-29T13:36:51.501Z,38.57
2018-06-29T13:39:19.625Z,42.53
2018-06-29T13:41:47.718Z,40.10
2018-06-29T13:44:15.984Z,42.63
2018-06-29T13:46:43.948Z,40.03
2018-06-29T13:49:12.049Z,39.97
2018-06-29T13:51:40.319Z,42.67
2018-06-29T13:54:08.401Z,42.87
2018-06-29T13:56:36.520Z,41.83
2018-06-29T13:59:04.637Z,41.33
2018-06-29T14:01:32.765Z,40.17
2018-06-29T14:04:00.860Z,43.20
2018-06-29T14:06:28.984Z,41.77
2018-06-29T14:08:57.130Z,38.13
2018-06-29T14:11:25.210Z,47.83
2018-06-29T14:13:53.364Z,40.03
2018-06-29T14:16:21.508Z,40.30
2018-06-29T14:18:49.588Z,40.20
2018-06-29T14:21:17.768Z,38.80
2018-06-29T14:23:45.876Z,41.53
2018-06-29T14:26:14.145Z,40.73
2018-06-29T14:28:42.241Z,41.87
2018-06-29T14:31:10.348Z,40.50
2018-06-29T14:33:38.450Z,39.67
2018-06-29T14:36:06.564Z,48.20
2018-06-29T14:38:34.685Z,39.50
2018-06-29T14:41:02.875Z,35.87
2018-06-29T14:43:30.912Z,36.43
2018-06-29T14:45:59.863Z,39.50
2018-06-29T14:48:27.943Z,38.70
2018-06-29T14:50:56.069Z,41.43
2018-06-29T14:53:24.160Z,37.97
2018-06-29T14:55:52.245Z,41.60
2018-06-29T14:58:20.364Z,33.17
2018-06-29T15:00:48.465Z,41.73
2018-06-29T15:03:16.627Z,36.07
2018-06-29T15:05:44.720Z,36.20
2018-06-29T15:08:12.832Z,37.67
2018-06-29T15:10:40.924Z,37.80
2018-06-29T15:13:09.040Z,38.87
2018-06-29T15:15:37.484Z,43.10
2018-06-29T15:18:05.968Z,33.70
2018-06-29T15:20:34.076Z,40.13
2018-06-29T15:23:02.212Z,35.13
2018-06-29T15:25:30.310Z,31.43
2018-06-29T15:27:58.439Z,32.10
2018-06-29T15:30:26.538Z,38.37
2018-06-29T15:32:54.656Z,34.33
2018-06-29T15:35:22.769Z,30.80
2018-06-29T15:37:50.864Z,28.00
2018-06-29T15:40:18.952Z,33.20
2018-06-29T15:42:47.056Z,31.17
2018-06-29T15:45:15.205Z,30.60
2018-06-29T15:47:43.324Z,30.60
2018-06-29T15:50:11.417Z,28.40
2018-06-29T15:52:39.528Z,34.50
2018-06-29T15:55:07.633Z,30.97
2018-06-29T15:57:35.752Z,29.37
2018-06-29T16:00:04.787Z,33.63
2018-06-29T16:02:32.897Z,33.00
2018-06-29T16:05:01.361Z,31.97
2018-06-29T16:07:29.500Z,32.70
2018-06-29T16:09:57.588Z,29.13
2018-06-29T16:12:25.692Z,36.83
2018-06-29T16:14:53.791Z,43.87
2018-06-29T16:17:21.899Z,33.80
2018-06-29T16:19:49.984Z,31.63
2018-06-29T16:22:18.089Z,30.03
2018-06-29T16:24:46.321Z,32.03
2018-06-29T16:27:14.457Z,34.47
2018-06-29T16:29:42.553Z,33.63
2018-06-29T16:32:10.668Z,31.73
2018-06-29T16:34:38.764Z,30.07
2018-06-29T16:37:06.868Z,28.43
2018-06-29T16:39:34.959Z,30.80
2018-06-29T16:42:03.080Z,33.90
2018-06-29T16:44:31.199Z,29.33
2018-06-29T16:46:59.291Z,34.03
2018-06-29T16:49:27.404Z,34.50
2018-06-29T16:51:55.492Z,36.43
2018-06-29T16:54:23.612Z,31.43
2018-06-29T16:56:51.775Z,31.00
2018-06-29T16:59:19.887Z,38.07
2018-06-29T17:01:47.972Z,42.47
2018-06-29T17:04:16.067Z,32.70
2018-06-29T17:06:44.144Z,26.37
2018-06-29T17:09:12.241Z,26.33
2018-06-29T17:11:40.316Z,41.47
2018-06-29T17:14:08.416Z,55.73
2018-06-29T17:16:36.498Z,33.53
2018-06-29T17:19:04.720Z,36.37
2018-06-29T17:21:32.796Z,29.77
2018-06-29T17:24:00.970Z,32.00
2018-06-29T17:26:29.048Z,33.53
2018-06-29T17:28:57.263Z,29.70
2018-06-29T17:31:25.272Z,29.43
2018-06-29T17:33:53.717Z,29.63
2018-06-29T17:36:21.800Z,25.53
2018-06-29T17:38:49.900Z,28.53
2018-06-29T17:41:17.992Z,26.23
2018-06-29T17:43:46.125Z,30.27
2018-06-29T17:46:14.291Z,31.07
2018-06-29T17:48:42.348Z,30.77
2018-06-29T17:51:10.432Z,31.50
2018-06-29T17:53:38.620Z,35.90
2018-06-29T17:56:06.701Z,32.60
2018-06-29T17:58:34.824Z,158.70
2018-06-29T18:01:02.995Z,31.77
2018-06-29T18:03:31.097Z,30.27
2018-06-29T18:05:59.316Z,30.23
2018-06-29T18:08:27.416Z,28.67
2018-06-29T18:10:55.496Z,31.67
2018-06-29T18:13:23.630Z,26.77
2018-06-29T18:15:51.740Z,27.00
2018-06-29T18:18:19.852Z,30.47
2018-06-29T18:20:48.247Z,34.43
2018-06-29T18:23:16.312Z,32.43
2018-06-29T18:25:44.415Z,28.90
2018-06-29T18:28:12.534Z,29.30
2018-06-29T18:30:40.689Z,31.30
2018-06-29T18:33:14.240Z,31.73
2018-06-29T18:35:42.344Z,31.80
2018-06-29T18:38:10.444Z,32.87
2018-06-29T18:40:38.541Z,28.37
2018-06-29T18:43:06.832Z,32.07
2018-06-29T18:45:35.221Z,30.50
2018-06-29T18:48:03.326Z,34.70
2018-06-29T18:50:31.420Z,31.90
2018-06-29T18:52:59.504Z,34.30
2018-06-29T18:55:27.592Z,34.23
2018-06-29T18:57:55.937Z,33.67
2018-06-29T19:00:24.072Z,30.10
2018-06-29T19:02:52.168Z,32.00
2018-06-29T19:05:20.516Z,36.00
2018-06-29T19:07:48.600Z,35.03
2018-06-29T19:10:16.723Z,42.77
2018-06-29T19:12:44.820Z,36.93
2018-06-29T19:15:12.951Z,39.07
2018-06-29T19:17:41.049Z,35.17
2018-06-29T19:20:09.184Z,36.80
2018-06-29T19:22:37.268Z,32.10
2018-06-29T19:25:05.620Z,35.10
2018-06-29T19:27:33.705Z,33.27
2018-06-29T19:30:01.812Z,32.07
2018-06-29T19:32:29.901Z,36.70
2018-06-29T19:34:58.009Z,35.10
2018-06-29T19:37:26.121Z,34.13
2018-06-29T19:39:54.452Z,47.40
2018-06-29T19:42:22.544Z,40.30
2018-06-29T19:44:50.686Z,38.13
2018-06-29T19:47:18.780Z,36.43
2018-06-29T19:49:46.884Z,36.77
2018-06-29T19:52:14.989Z,34.40
2018-06-29T19:54:43.096Z,36.60
2018-06-29T19:57:11.517Z,38.33
2018-06-29T19:59:39.632Z,41.27
2018-06-29T20:02:07.732Z,39.60
2018-06-29T20:04:35.833Z,45.27
2018-06-29T20:07:03.936Z,43.50
2018-06-29T20:09:32.044Z,39.73
2018-06-29T20:12:00.124Z,38.80
2018-06-29T20:14:28.212Z,35.87
2018-06-29T20:16:56.636Z,34.80
2018-06-29T20:19:24.962Z,41.93
2018-06-29T20:21:53.145Z,38.43
2018-06-29T20:24:21.412Z,37.13
2018-06-29T20:26:49.618Z,36.60
2018-06-29T20:29:17.804Z,48.80
2018-06-29T20:31:45.935Z,38.57
2018-06-29T20:34:14.065Z,42.20
2018-06-29T20:36:42.336Z,41.13
2018-06-29T20:39:11.733Z,42.60
2018-06-29T20:41:40.132Z,42.07
2018-06-29T20:44:08.499Z,37.23
2018-06-29T20:46:36.656Z,42.10
2018-06-29T20:49:04.892Z,37.10
2018-06-29T20:51:33.116Z,46.70
2018-06-29T20:54:01.359Z,37.20
2018-06-29T20:56:29.718Z,37.90
2018-06-29T20:58:58.096Z,43.90
2018-06-29T21:01:26.381Z,42.40
2018-06-29T21:03:54.725Z,49.33
2018-06-29T21:06:22.979Z,41.33
2018-06-29T21:08:51.191Z,44.83
2018-06-29T21:11:19.377Z,40.80
2018-06-29T21:13:47.492Z,38.70
2018-06-29T21:16:15.621Z,40.63
2018-06-29T21:18:43.728Z,36.53
2018-06-29T21:21:12.078Z,41.50
2018-06-29T21:23:40.192Z,47.03
2018-06-29T21:26:08.409Z,41.37
2018-06-29T21:28:36.685Z,42.53
2018-06-29T21:31:05.024Z,46.97
2018-06-29T21:33:33.297Z,45.97
2018-06-29T21:36:01.585Z,42.10
2018-06-29T21:38:29.675Z,38.97
2018-06-29T21:40:57.917Z,42.70
2018-06-29T21:43:26.164Z,37.77
2018-06-29T21:45:54.465Z,42.13
2018-06-29T21:48:22.985Z,44.50
2018-06-29T21:50:51.410Z,39.63
2018-06-29T21:53:20.189Z,38.50
2018-06-29T21:55:48.377Z,36.63
2018-06-29T21:58:16.569Z,45.77
2018-06-29T22:00:45.584Z,43.63
2018-06-29T22:03:14.111Z,40.00
2018-06-29T22:05:43.008Z,41.03
2018-06-29T22:08:12.307Z,41.43
2018-06-29T22:10:40.801Z,43.07
2018-06-29T22:13:08.904Z,49.37
2018-06-29T22:15:37.016Z,42.70
2018-06-29T22:18:05.292Z,48.47
2018-06-29T22:20:33.383Z,42.90
2018-06-29T22:23:01.570Z,39.67
2018-06-29T22:25:29.642Z,42.37
2018-06-29T22:27:57.767Z,37.70
2018-06-29T22:30:25.848Z,44.17
2018-06-29T22:32:53.952Z,45.03
2018-06-29T22:35:22.045Z,43.90
2018-06-29T22:37:50.169Z,42.90
2018-06-29T22:40:18.260Z,40.00
2018-06-29T22:42:46.369Z,42.73
2018-06-29T22:45:14.468Z,40.73
2018-06-29T22:47:42.567Z,39.93
2018-06-29T22:50:10.667Z,42.27
2018-06-29T22:52:38.781Z,37.87
2018-06-29T22:55:06.871Z,40.23
2018-06-29T22:57:34.976Z,37.90
2018-06-29T23:00:03.100Z,40.40
2018-06-29T23:02:31.221Z,38.00
2018-06-29T23:04:59.328Z,37.77
2018-06-29T23:07:27.482Z,44.63
2018-06-29T23:09:55.567Z,40.43
2018-06-29T23:12:23.672Z,39.10
2018-06-29T23:14:51.772Z,34.60
2018-06-29T23:17:19.884Z,36.70
2018-06-29T23:19:47.973Z,35.73
2018-06-29T23:22:16.092Z,35.17
2018-06-29T23:24:44.175Z,38.50
2018-06-29T23:27:12.292Z,37.87
2018-06-29T23:29:40.416Z,35.83
2018-06-29T23:32:08.524Z,36.00
2018-06-29T23:34:36.657Z,36.33
2018-06-29T23:37:04.776Z,32.83
2018-06-29T23:39:32.877Z,36.93
2018-06-29T23:42:00.985Z,37.60
2018-06-29T23:44:29.084Z,36.23
2018-06-29T23:46:57.232Z,33.33
2018-06-29T23:49:25.354Z,43.20
2018-06-29T23:51:53.453Z,37.93
2018-06-29T23:54:21.556Z,36.70
2018-06-29T23:56:49.648Z,34.63
2018-06-29T23:59:17.752Z,37.67
